createdAt,value
2017-11-30T00:00:15.199Z,4.51
2017-11-30T00:00:55.734Z,4.47
2017-11-30T00:01:36.235Z,4.4
2017-11-30T00:02:16.719Z,4.44
2017-11-30T00:02:57.242Z,4.44
2017-11-30T00:03:37.732Z,4.33
2017-11-30T00:04:18.260Z,4.41
2017-11-30T00:04:58.759Z,4.5
2017-11-30T00:05:39.248Z,4.41
2017-11-30T00:06:19.759Z,4.41
2017-11-30T00:07:00.273Z,4.37
2017-11-30T00:07:40.799Z,4.42
2017-11-30T00:08:21.363Z,4.41
2017-11-30T00:09:01.815Z,4.45
2017-11-30T00:09:42.324Z,4.42
2017-11-30T00:10:22.857Z,4.34
2017-11-30T00:11:03.379Z,4.37
2017-11-30T00:11:43.892Z,4.37
2017-11-30T00:12:24.408Z,4.33
2017-11-30T00:13:04.926Z,4.44
2017-11-30T00:13:45.477Z,4.44
2017-11-30T00:14:25.953Z,4.48
2017-11-30T00:15:06.460Z,4.48
2017-11-30T00:15:46.974Z,4.41
2017-11-30T00:16:27.489Z,4.4
2017-11-30T00:17:08.021Z,4.41
2017-11-30T00:17:48.557Z,4.37
2017-11-30T00:18:29.080Z,4.42
2017-11-30T00:19:09.569Z,4.37
2017-11-30T00:19:50.079Z,4.34
2017-11-30T00:20:30.567Z,4.34
2017-11-30T00:21:11.057Z,4.42
2017-11-30T00:21:51.563Z,4.32
2017-11-30T00:22:32.073Z,4.41
2017-11-30T00:23:12.582Z,4.44
2017-11-30T00:23:53.121Z,4.45
2017-11-30T00:24:33.621Z,4.44
2017-11-30T00:25:14.145Z,4.37
2017-11-30T00:25:54.643Z,4.47
2017-11-30T00:26:35.162Z,4.4
2017-11-30T00:27:15.655Z,4.44
2017-11-30T00:27:56.150Z,4.45
2017-11-30T00:28:36.674Z,4.45
2017-11-30T00:29:17.197Z,4.44
2017-11-30T00:29:57.710Z,4.47
2017-11-30T00:30:38.227Z,4.44
2017-11-30T00:31:18.727Z,4.36
2017-11-30T00:31:59.237Z,4.37
2017-11-30T00:32:39.768Z,4.44
2017-11-30T00:33:20.294Z,4.36
2017-11-30T00:34:00.928Z,4.41
2017-11-30T00:34:41.443Z,4.36
2017-11-30T00:35:21.950Z,4.42
2017-11-30T00:36:02.455Z,4.41
2017-11-30T00:36:42.972Z,4.34
2017-11-30T00:37:23.485Z,4.37
2017-11-30T00:38:04.021Z,4.41
2017-11-30T00:38:44.505Z,4.42
2017-11-30T00:39:24.983Z,4.4
2017-11-30T00:40:05.501Z,4.37
2017-11-30T00:40:45.994Z,4.42
2017-11-30T00:41:26.482Z,4.44
2017-11-30T00:42:07.002Z,4.42
2017-11-30T00:42:47.531Z,4.45
2017-11-30T00:43:28.030Z,4.36
2017-11-30T00:44:08.510Z,4.44
2017-11-30T00:44:49.021Z,4.41
2017-11-30T00:45:29.526Z,4.42
2017-11-30T00:46:10.034Z,4.41
2017-11-30T00:46:50.557Z,4.44
2017-11-30T00:47:31.071Z,4.33
2017-11-30T00:48:11.595Z,4.45
2017-11-30T00:48:52.111Z,4.44
2017-11-30T00:49:32.618Z,4.44
2017-11-30T00:50:13.113Z,4.45
2017-11-30T00:50:53.651Z,4.45
2017-11-30T00:51:34.168Z,4.42
2017-11-30T00:52:14.660Z,4.44
2017-11-30T00:52:55.183Z,4.44
2017-11-30T00:53:35.695Z,4.42
2017-11-30T00:54:16.201Z,4.34
2017-11-30T00:54:56.730Z,4.34
2017-11-30T00:55:37.279Z,4.44
2017-11-30T00:56:17.798Z,4.36
2017-11-30T00:56:58.310Z,4.33
2017-11-30T00:57:38.899Z,4.45
2017-11-30T00:58:19.327Z,4.33
2017-11-30T00:58:59.827Z,4.42
2017-11-30T00:59:40.355Z,4.44
2017-11-30T01:00:20.860Z,4.42
2017-11-30T01:01:01.388Z,4.42
2017-11-30T01:01:41.906Z,4.37
2017-11-30T01:02:22.417Z,4.42
2017-11-30T01:03:02.928Z,4.4
2017-11-30T01:03:43.431Z,4.34
2017-11-30T01:04:23.954Z,4.42
2017-11-30T01:05:04.467Z,4.42
2017-11-30T01:05:44.984Z,4.34
2017-11-30T01:06:25.508Z,4.37
2017-11-30T01:07:06.021Z,4.36
2017-11-30T01:07:46.547Z,4.33
2017-11-30T01:10:02.125Z,4.29
2017-11-30T01:10:42.596Z,4.23
2017-11-30T01:11:23.097Z,4.24
2017-11-30T01:12:03.618Z,4.3
2017-11-30T01:12:44.131Z,4.23
2017-11-30T01:13:24.643Z,4.24
2017-11-30T01:14:05.168Z,4.24
2017-11-30T01:14:45.707Z,4.24
2017-11-30T01:15:26.236Z,4.26
2017-11-30T01:16:06.742Z,4.29
2017-11-30T01:16:47.234Z,4.26
2017-11-30T01:17:27.740Z,4.24
2017-11-30T01:18:08.251Z,4.29
2017-11-30T01:18:48.768Z,4.24
2017-11-30T01:19:29.281Z,4.26
2017-11-30T01:20:09.783Z,4.23
2017-11-30T01:20:50.285Z,4.23
2017-11-30T01:21:30.795Z,4.24
2017-11-30T01:22:11.304Z,4.26
2017-11-30T01:22:51.796Z,4.27
2017-11-30T01:23:32.285Z,4.22
2017-11-30T01:24:12.789Z,4.27
2017-11-30T01:24:53.288Z,4.27
2017-11-30T01:25:33.809Z,4.2
2017-11-30T01:26:15.881Z,4.2
2017-11-30T01:26:56.383Z,4.24
2017-11-30T01:27:36.891Z,4.24
2017-11-30T01:28:17.418Z,4.24
2017-11-30T01:28:57.919Z,4.26
2017-11-30T01:29:38.439Z,4.24
2017-11-30T01:30:18.954Z,4.29
2017-11-30T01:30:59.486Z,4.23
2017-11-30T01:31:39.991Z,4.2
2017-11-30T01:32:20.523Z,4.18
2017-11-30T01:33:01.025Z,4.16
2017-11-30T01:33:41.559Z,4.15
2017-11-30T01:34:22.088Z,4.05
2017-11-30T01:35:02.608Z,4.08
2017-11-30T01:35:43.126Z,4.09
2017-11-30T01:36:23.649Z,4.11
2017-11-30T01:37:04.173Z,4.06
2017-11-30T01:37:44.674Z,4.04
2017-11-30T01:38:25.243Z,4.04
2017-11-30T01:39:05.761Z,4
2017-11-30T01:39:46.257Z,3.93
2017-11-30T01:40:26.758Z,4
2017-11-30T01:41:07.287Z,3.93
2017-11-30T01:41:47.795Z,3.93
2017-11-30T01:42:28.309Z,4.02
2017-11-30T01:43:08.834Z,3.98
2017-11-30T01:43:49.365Z,3.96
2017-11-30T01:44:29.882Z,3.94
2017-11-30T01:45:10.400Z,3.97
2017-11-30T01:45:50.917Z,4.02
2017-11-30T01:46:31.440Z,3.86
2017-11-30T01:47:11.897Z,3.94
2017-11-30T01:47:52.410Z,3.94
2017-11-30T01:48:32.944Z,3.94
2017-11-30T01:49:13.462Z,3.9
2017-11-30T01:49:53.956Z,3.98
2017-11-30T01:50:34.479Z,3.88
2017-11-30T01:51:14.970Z,4.02
2017-11-30T01:51:55.504Z,3.98
2017-11-30T01:52:36.010Z,4.04
2017-11-30T01:53:16.526Z,3.91
2017-11-30T01:53:57.033Z,4
2017-11-30T01:54:37.555Z,3.96
2017-11-30T01:55:18.064Z,4.04
2017-11-30T01:55:58.572Z,3.96
2017-11-30T01:56:39.077Z,3.98
2017-11-30T01:57:19.603Z,4
2017-11-30T01:58:00.101Z,3.87
2017-11-30T01:58:40.591Z,3.88
2017-11-30T01:59:21.114Z,3.93
2017-11-30T02:00:01.631Z,3.93
2017-11-30T02:00:42.148Z,3.91
2017-11-30T02:01:22.676Z,3.88
2017-11-30T02:02:03.194Z,3.93
2017-11-30T02:02:43.711Z,3.9
2017-11-30T02:03:24.222Z,3.84
2017-11-30T02:04:04.729Z,3.97
2017-11-30T02:04:45.246Z,3.93
2017-11-30T02:05:25.774Z,3.9
2017-11-30T02:06:06.296Z,3.84
2017-11-30T02:06:46.776Z,3.96
2017-11-30T02:07:27.296Z,3.98
2017-11-30T02:08:07.812Z,3.94
2017-11-30T02:08:48.326Z,4
2017-11-30T02:09:28.834Z,4.04
2017-11-30T02:10:09.342Z,3.86
2017-11-30T02:10:49.877Z,3.91
2017-11-30T02:11:30.408Z,3.93
2017-11-30T02:12:10.901Z,3.88
2017-11-30T02:12:51.438Z,3.97
2017-11-30T02:13:31.960Z,3.91
2017-11-30T02:14:12.449Z,3.83
2017-11-30T02:14:52.970Z,3.87
2017-11-30T02:15:33.488Z,3.88
2017-11-30T02:16:13.992Z,3.9
2017-11-30T02:16:54.499Z,3.83
2017-11-30T02:17:35.012Z,3.79
2017-11-30T02:18:15.530Z,3.83
2017-11-30T02:18:56.031Z,3.76
2017-11-30T02:19:36.553Z,3.8
2017-11-30T02:20:17.052Z,3.78
2017-11-30T02:20:57.564Z,3.69
2017-11-30T02:21:38.073Z,3.69
2017-11-30T02:22:18.591Z,3.69
2017-11-30T02:22:59.102Z,3.79
2017-11-30T02:23:39.618Z,3.84
2017-11-30T02:24:20.129Z,3.72
2017-11-30T02:25:00.629Z,3.78
2017-11-30T02:25:41.143Z,3.75
2017-11-30T02:26:21.663Z,3.65
2017-11-30T02:27:02.176Z,3.72
2017-11-30T02:27:42.691Z,3.65
2017-11-30T02:28:23.235Z,3.69
2017-11-30T02:29:03.740Z,3.72
2017-11-30T02:29:44.277Z,3.68
2017-11-30T02:30:24.791Z,3.73
2017-11-30T02:31:05.313Z,3.7
2017-11-30T02:31:45.828Z,3.75
2017-11-30T02:32:26.352Z,3.7
2017-11-30T02:33:06.851Z,3.69
2017-11-30T02:33:47.343Z,3.69
2017-11-30T02:34:27.872Z,3.69
2017-11-30T02:35:08.385Z,3.79
2017-11-30T02:35:48.906Z,3.83
2017-11-30T02:36:29.434Z,3.76
2017-11-30T02:37:09.952Z,3.83
2017-11-30T02:37:50.472Z,3.78
2017-11-30T02:38:30.978Z,3.9
2017-11-30T02:39:11.501Z,3.79
2017-11-30T02:39:51.998Z,3.8
2017-11-30T02:40:32.515Z,3.8
2017-11-30T02:41:13.046Z,3.76
2017-11-30T02:41:53.577Z,3.79
2017-11-30T02:42:34.171Z,3.76
2017-11-30T02:43:14.691Z,3.8
2017-11-30T02:43:55.200Z,3.83
2017-11-30T02:44:35.727Z,3.72
2017-11-30T02:45:16.245Z,3.68
2017-11-30T02:45:56.767Z,3.79
2017-11-30T02:46:37.287Z,3.68
2017-11-30T02:47:17.802Z,3.68
2017-11-30T02:47:58.328Z,3.69
2017-11-30T02:48:38.856Z,3.7
2017-11-30T02:49:19.336Z,3.66
2017-11-30T02:49:59.863Z,3.66
2017-11-30T02:50:40.367Z,3.72
2017-11-30T02:51:20.882Z,3.72
2017-11-30T02:52:01.367Z,3.72
2017-11-30T02:52:41.878Z,3.7
2017-11-30T02:53:22.381Z,3.68
2017-11-30T02:54:02.883Z,3.72
2017-11-30T02:54:43.410Z,3.62
2017-11-30T02:55:23.903Z,3.69
2017-11-30T02:56:04.403Z,3.61
2017-11-30T02:56:44.935Z,3.58
2017-11-30T02:57:25.418Z,3.61
2017-11-30T02:58:05.933Z,3.52
2017-11-30T02:58:46.451Z,3.5
2017-11-30T02:59:26.962Z,3.51
2017-11-30T03:00:07.501Z,3.42
2017-11-30T03:00:47.984Z,3.47
2017-11-30T03:01:28.507Z,3.54
2017-11-30T03:02:09.011Z,3.55
2017-11-30T03:02:49.514Z,3.5
2017-11-30T03:03:30.016Z,3.48
2017-11-30T03:04:10.549Z,3.48
2017-11-30T03:04:51.063Z,3.5
2017-11-30T03:05:31.608Z,3.54
2017-11-30T03:06:12.083Z,3.51
2017-11-30T03:06:52.619Z,3.57
2017-11-30T03:07:33.115Z,3.51
2017-11-30T03:08:13.645Z,3.57
2017-11-30T03:08:54.149Z,3.54
2017-11-30T03:09:34.637Z,3.51
2017-11-30T03:10:15.144Z,3.57
2017-11-30T03:10:55.640Z,3.58
2017-11-30T03:11:36.145Z,3.65
2017-11-30T03:12:16.660Z,3.57
2017-11-30T03:12:57.181Z,3.57
2017-11-30T03:13:37.701Z,3.57
2017-11-30T03:14:18.211Z,3.61
2017-11-30T03:14:58.720Z,3.57
2017-11-30T03:15:39.231Z,3.65
2017-11-30T03:16:19.742Z,3.6
2017-11-30T03:17:00.248Z,3.57
2017-11-30T03:17:40.793Z,3.61
2017-11-30T03:18:21.265Z,3.58
2017-11-30T03:19:01.775Z,3.65
2017-11-30T03:19:42.291Z,3.62
2017-11-30T03:20:22.813Z,3.61
2017-11-30T03:21:03.307Z,3.65
2017-11-30T03:21:43.817Z,3.6
2017-11-30T03:22:24.336Z,3.66
2017-11-30T03:23:04.853Z,3.62
2017-11-30T03:23:45.365Z,3.72
2017-11-30T03:24:25.889Z,3.65
2017-11-30T03:25:06.388Z,3.66
2017-11-30T03:25:46.916Z,3.61
2017-11-30T03:26:27.404Z,3.66
2017-11-30T03:27:07.913Z,3.65
2017-11-30T03:27:48.446Z,3.7
2017-11-30T03:28:28.949Z,3.61
2017-11-30T03:29:09.447Z,3.61
2017-11-30T03:29:49.944Z,3.66
2017-11-30T03:30:30.468Z,3.65
2017-11-30T03:31:10.976Z,3.57
2017-11-30T03:31:51.494Z,3.58
2017-11-30T03:32:31.989Z,3.62
2017-11-30T03:33:12.511Z,3.65
2017-11-30T03:33:53.034Z,3.66
2017-11-30T03:34:33.563Z,3.65
2017-11-30T03:35:20.997Z,3.69
2017-11-30T03:36:01.504Z,3.66
2017-11-30T03:36:42.029Z,3.58
2017-11-30T03:37:22.535Z,3.69
2017-11-30T03:38:03.056Z,3.7
2017-11-30T03:38:43.565Z,3.65
2017-11-30T03:39:24.075Z,3.68
2017-11-30T03:40:04.599Z,3.75
2017-11-30T03:40:45.114Z,3.61
2017-11-30T03:41:25.626Z,3.55
2017-11-30T03:42:06.151Z,3.61
2017-11-30T03:42:46.659Z,3.65
2017-11-30T03:43:27.196Z,3.57
2017-11-30T03:44:07.693Z,3.54
2017-11-30T03:44:48.206Z,3.66
2017-11-30T03:45:28.715Z,3.61
2017-11-30T03:46:09.212Z,3.54
2017-11-30T03:46:49.725Z,3.6
2017-11-30T03:47:30.247Z,3.52
2017-11-30T03:48:10.750Z,3.54
2017-11-30T03:48:51.260Z,3.54
2017-11-30T03:49:31.774Z,3.58
2017-11-30T03:50:12.300Z,3.55
2017-11-30T03:50:52.811Z,3.55
2017-11-30T03:51:33.324Z,3.48
2017-11-30T03:52:13.829Z,3.57
2017-11-30T03:52:54.340Z,3.57
2017-11-30T03:53:34.838Z,3.57
2017-11-30T03:54:15.403Z,3.55
2017-11-30T03:54:55.943Z,3.54
2017-11-30T03:55:36.453Z,3.54
2017-11-30T03:56:16.986Z,3.57
2017-11-30T03:56:57.504Z,3.57
2017-11-30T03:57:38.012Z,3.5
2017-11-30T03:58:18.525Z,3.57
2017-11-30T03:58:59.035Z,3.54
2017-11-30T03:59:39.542Z,3.58
2017-11-30T04:00:20.060Z,3.57
2017-11-30T04:01:00.555Z,3.61
2017-11-30T04:01:41.067Z,3.57
2017-11-30T04:02:21.598Z,3.52
2017-11-30T04:03:02.113Z,3.57
2017-11-30T04:03:42.637Z,3.57
2017-11-30T04:04:23.156Z,3.51
2017-11-30T04:05:03.657Z,3.54
2017-11-30T04:05:44.188Z,3.6
2017-11-30T04:06:24.709Z,3.48
2017-11-30T04:07:05.232Z,3.57
2017-11-30T04:07:45.751Z,3.52
2017-11-30T04:08:26.279Z,3.45
2017-11-30T04:09:06.820Z,3.5
2017-11-30T04:09:47.323Z,3.48
2017-11-30T04:10:27.841Z,3.57
2017-11-30T04:11:08.367Z,3.57
2017-11-30T04:11:48.881Z,3.5
2017-11-30T04:12:29.404Z,3.51
2017-11-30T04:13:09.932Z,3.6
2017-11-30T04:13:50.433Z,3.55
2017-11-30T04:14:30.950Z,3.52
2017-11-30T04:15:11.459Z,3.54
2017-11-30T04:15:51.962Z,3.47
2017-11-30T04:16:32.532Z,3.47
2017-11-30T04:17:13.047Z,3.48
2017-11-30T04:17:53.571Z,3.48
2017-11-30T04:18:34.086Z,3.5
2017-11-30T04:19:14.622Z,3.48
2017-11-30T04:19:55.142Z,3.5
2017-11-30T04:20:35.650Z,3.5
2017-11-30T04:21:16.140Z,3.51
2017-11-30T04:21:56.661Z,3.47
2017-11-30T04:22:37.183Z,3.48
2017-11-30T04:23:17.700Z,3.5
2017-11-30T04:23:58.216Z,3.5
2017-11-30T04:24:38.733Z,3.43
2017-11-30T04:25:19.251Z,3.42
2017-11-30T04:25:59.762Z,3.45
2017-11-30T04:26:40.275Z,3.5
2017-11-30T04:27:20.810Z,3.51
2017-11-30T04:28:01.313Z,3.45
2017-11-30T04:28:41.816Z,3.45
2017-11-30T04:29:22.364Z,3.54
2017-11-30T04:30:02.880Z,3.39
2017-11-30T04:30:43.425Z,3.4
2017-11-30T04:31:23.927Z,3.45
2017-11-30T04:32:04.436Z,3.47
2017-11-30T04:32:44.961Z,3.43
2017-11-30T04:33:25.481Z,3.52
2017-11-30T04:34:05.999Z,3.45
2017-11-30T04:34:46.506Z,3.42
2017-11-30T04:35:27.023Z,3.42
2017-11-30T04:36:07.530Z,3.36
2017-11-30T04:36:48.049Z,3.42
2017-11-30T04:37:28.552Z,3.52
2017-11-30T04:38:09.043Z,3.5
2017-11-30T04:38:49.523Z,3.47
2017-11-30T04:39:30.030Z,3.47
2017-11-30T04:40:10.560Z,3.51
2017-11-30T04:40:51.039Z,3.45
2017-11-30T04:41:31.529Z,3.55
2017-11-30T04:42:12.011Z,3.4
2017-11-30T04:42:52.529Z,3.42
2017-11-30T04:43:33.042Z,3.42
2017-11-30T04:44:13.534Z,3.48
2017-11-30T04:44:54.041Z,3.42
2017-11-30T04:45:34.527Z,3.52
2017-11-30T04:46:15.022Z,3.5
2017-11-30T04:46:55.546Z,3.52
2017-11-30T04:47:36.020Z,3.48
2017-11-30T04:48:16.525Z,3.4
2017-11-30T04:48:57.070Z,3.45
2017-11-30T04:49:37.523Z,3.54
2017-11-30T04:50:18.015Z,3.47
2017-11-30T04:50:58.545Z,3.5
2017-11-30T04:51:39.050Z,3.47
2017-11-30T04:52:19.527Z,3.47
2017-11-30T04:53:00.015Z,3.52
2017-11-30T04:53:40.521Z,3.47
2017-11-30T04:54:21.142Z,3.42
2017-11-30T04:55:01.610Z,3.48
2017-11-30T04:55:42.107Z,3.51
2017-11-30T04:56:22.614Z,3.39
2017-11-30T04:57:03.105Z,3.5
2017-11-30T04:57:43.587Z,3.39
2017-11-30T04:58:24.091Z,3.39
2017-11-30T04:59:04.572Z,3.39
2017-11-30T04:59:45.075Z,3.42
2017-11-30T05:00:25.644Z,3.42
2017-11-30T05:01:06.162Z,3.48
2017-11-30T05:01:46.696Z,3.4
2017-11-30T05:02:27.339Z,3.42
2017-11-30T05:03:07.875Z,3.48
2017-11-30T05:03:48.345Z,3.39
2017-11-30T05:04:28.853Z,3.39
2017-11-30T05:05:09.402Z,3.39
2017-11-30T05:05:49.887Z,3.42
2017-11-30T05:06:30.372Z,3.42
2017-11-30T05:07:10.893Z,3.43
2017-11-30T05:07:51.422Z,3.29
2017-11-30T05:08:32.022Z,3.36
2017-11-30T05:09:12.506Z,3.35
2017-11-30T05:09:53.116Z,3.43
2017-11-30T05:10:33.658Z,3.39
2017-11-30T05:11:14.164Z,3.36
2017-11-30T05:11:54.685Z,3.29
2017-11-30T05:12:35.177Z,3.33
2017-11-30T05:13:15.670Z,3.33
2017-11-30T05:13:56.199Z,3.43
2017-11-30T05:14:39.718Z,3.39
2017-11-30T05:15:21.852Z,3.43
2017-11-30T05:16:04.340Z,3.42
2017-11-30T05:16:44.833Z,3.4
2017-11-30T05:17:25.374Z,3.36
2017-11-30T05:18:05.883Z,3.35
2017-11-30T05:18:46.452Z,3.42
2017-11-30T05:19:27.120Z,3.42
2017-11-30T05:20:07.820Z,3.4
2017-11-30T05:20:48.494Z,3.32
2017-11-30T05:21:29.018Z,3.4
2017-11-30T05:25:19.779Z,3.39
2017-11-30T05:26:00.468Z,3.39
2017-11-30T05:26:41.215Z,3.36
2017-11-30T05:27:24.669Z,3.42
2017-11-30T05:28:05.959Z,3.42
2017-11-30T05:30:21.503Z,3.48
2017-11-30T05:32:22.997Z,3.26
2017-11-30T05:33:03.681Z,3.26
2017-11-30T05:33:44.161Z,3.18
2017-11-30T05:34:24.693Z,3
2017-11-30T05:35:05.260Z,2.99
2017-11-30T05:35:45.746Z,2.78
2017-11-30T05:36:26.269Z,2.81
2017-11-30T05:37:06.812Z,2.82
2017-11-30T05:37:47.407Z,2.78
2017-11-30T05:38:27.904Z,2.72
2017-11-30T05:39:08.425Z,2.79
2017-11-30T05:39:48.983Z,2.75
2017-11-30T05:40:30.363Z,2.75
2017-11-30T05:41:12.681Z,2.69
2017-11-30T05:41:53.310Z,2.72
2017-11-30T05:42:35.335Z,2.74
2017-11-30T05:43:15.772Z,2.63
2017-11-30T05:43:56.330Z,2.59
2017-11-30T05:44:36.865Z,2.71
2017-11-30T05:45:17.436Z,2.63
2017-11-30T05:45:58.133Z,2.63
2017-11-30T05:46:38.738Z,2.67
2017-11-30T05:47:21.927Z,2.56
2017-11-30T05:48:02.487Z,2.57
2017-11-30T05:48:43.039Z,2.57
2017-11-30T05:49:23.612Z,2.56
2017-11-30T05:50:04.217Z,2.54
2017-11-30T05:50:44.793Z,2.57
2017-11-30T05:51:25.288Z,2.53
2017-11-30T05:52:05.942Z,2.49
2017-11-30T05:52:46.373Z,2.48
2017-11-30T05:53:26.949Z,2.48
2017-11-30T05:54:07.444Z,2.49
2017-11-30T05:54:48.009Z,2.45
2017-11-30T05:55:28.456Z,2.46
2017-11-30T05:56:09.106Z,2.42
2017-11-30T05:56:50.017Z,2.28
2017-11-30T05:57:30.499Z,2.3
2017-11-30T05:58:11.154Z,2.34
2017-11-30T05:58:51.652Z,2.31
2017-11-30T05:59:32.177Z,2.28
2017-11-30T06:00:13.528Z,2.27
2017-11-30T06:00:54.051Z,2.14
2017-11-30T06:01:34.553Z,2.17
2017-11-30T06:02:15.061Z,2.1
2017-11-30T06:02:55.575Z,1.99
2017-11-30T06:03:36.077Z,1.95
2017-11-30T06:04:16.686Z,1.91
2017-11-30T06:04:57.314Z,1.91
2017-11-30T06:05:39.736Z,1.93
2017-11-30T06:06:22.578Z,1.84
2017-11-30T06:07:03.613Z,1.91
2017-11-30T06:07:44.111Z,1.9
2017-11-30T06:08:24.622Z,1.9
2017-11-30T06:09:05.207Z,1.98
2017-11-30T06:09:45.749Z,2.05
2017-11-30T06:10:26.259Z,2.05
2017-11-30T06:11:06.734Z,2.06
2017-11-30T06:11:47.300Z,2.1
2017-11-30T06:12:27.769Z,2.14
2017-11-30T06:13:08.323Z,2.16
2017-11-30T06:13:48.798Z,2.05
2017-11-30T06:14:29.276Z,2.09
2017-11-30T06:15:09.816Z,2.2
2017-11-30T06:15:50.322Z,2.23
2017-11-30T06:16:30.858Z,2.21
2017-11-30T06:17:11.669Z,2.23
2017-11-30T06:17:52.176Z,2.3
2017-11-30T06:18:32.672Z,2.18
2017-11-30T06:19:13.152Z,2.31
2017-11-30T06:19:53.662Z,2.18
2017-11-30T06:20:34.150Z,2.25
2017-11-30T06:21:14.609Z,2.27
2017-11-30T06:21:55.133Z,2.25
2017-11-30T06:22:35.610Z,2.23
2017-11-30T06:23:16.113Z,2.3
2017-11-30T06:23:56.619Z,2.25
2017-11-30T06:24:37.166Z,2.31
2017-11-30T06:25:17.690Z,2.25
2017-11-30T06:25:58.152Z,2.34
2017-11-30T06:26:38.672Z,2.31
2017-11-30T06:27:19.200Z,2.34
2017-11-30T06:27:59.655Z,2.34
2017-11-30T06:28:40.165Z,2.34
2017-11-30T06:29:20.686Z,2.36
2017-11-30T06:30:01.221Z,2.24
2017-11-30T06:30:41.723Z,2.09
2017-11-30T06:31:22.176Z,2.12
2017-11-30T06:32:02.705Z,2.09
2017-11-30T06:32:43.168Z,2.02
2017-11-30T06:33:23.689Z,1.87
2017-11-30T06:34:04.144Z,1.81
2017-11-30T06:34:44.655Z,1.83
2017-11-30T06:35:25.128Z,1.62
2017-11-30T06:36:05.633Z,1.55
2017-11-30T06:36:46.226Z,1.55
2017-11-30T06:37:26.697Z,1.45
2017-11-30T06:38:07.217Z,1.48
2017-11-30T06:38:47.706Z,1.32
2017-11-30T06:39:28.231Z,1.44
2017-11-30T06:40:08.751Z,1.32
2017-11-30T06:40:49.272Z,1.36
2017-11-30T06:41:29.723Z,1.4
2017-11-30T06:42:10.207Z,1.29
2017-11-30T06:42:50.715Z,1.42
2017-11-30T06:43:31.244Z,1.4
2017-11-30T06:44:11.753Z,1.33
2017-11-30T06:44:52.249Z,1.4
2017-11-30T06:45:32.776Z,1.5
2017-11-30T06:46:14.425Z,1.42
2017-11-30T06:46:54.958Z,1.47
2017-11-30T06:47:35.404Z,1.41
2017-11-30T06:48:15.886Z,1.51
2017-11-30T06:48:56.422Z,1.5
2017-11-30T06:49:36.938Z,1.5
2017-11-30T06:50:17.483Z,1.59
2017-11-30T06:50:58.015Z,1.59
2017-11-30T06:51:38.531Z,1.62
2017-11-30T06:52:19.027Z,1.59
2017-11-30T06:52:59.568Z,1.68
2017-11-30T06:53:40.012Z,1.66
2017-11-30T06:55:56.310Z,1.77
2017-11-30T06:56:37.348Z,1.81
2017-11-30T07:06:27.430Z,2
2017-11-30T07:07:33.899Z,1.95
2017-11-30T07:08:24.640Z,2.02
2017-11-30T07:09:13.458Z,2.05
2017-11-30T07:10:02.462Z,2.02
2017-11-30T07:10:51.280Z,2.06
2017-11-30T07:11:38.783Z,2.05
2017-11-30T07:12:23.758Z,2.09
2017-11-30T07:13:07.730Z,2.09
2017-11-30T07:13:52.912Z,2.05
2017-11-30T07:14:37.471Z,2.05
2017-11-30T07:15:19.686Z,2.05
2017-11-30T07:16:06.421Z,2.02
2017-11-30T07:16:59.824Z,1.93
2017-11-30T07:24:07.609Z,1.68
2017-11-30T07:24:48.406Z,1.7
2017-11-30T07:25:28.932Z,1.6
2017-11-30T07:26:09.458Z,1.68
2017-11-30T07:26:50.019Z,1.6
2017-11-30T07:27:30.598Z,1.55
2017-11-30T07:28:11.101Z,1.55
2017-11-30T07:28:51.715Z,1.59
2017-11-30T07:29:32.307Z,1.63
2017-11-30T07:30:12.822Z,1.66
2017-11-30T07:30:53.452Z,1.66
2017-11-30T07:31:33.941Z,1.7
2017-11-30T07:32:14.528Z,1.63
2017-11-30T07:32:55.115Z,1.66
2017-11-30T07:33:36.506Z,1.73
2017-11-30T07:34:16.969Z,1.7
2017-11-30T07:34:57.469Z,1.79
2017-11-30T07:35:38.068Z,1.7
2017-11-30T07:36:18.609Z,1.66
2017-11-30T07:36:59.136Z,1.68
2017-11-30T07:37:39.681Z,1.65
2017-11-30T07:38:20.330Z,1.66
2017-11-30T07:39:00.906Z,1.7
2017-11-30T07:39:41.499Z,1.73
2017-11-30T07:40:22.010Z,1.68
2017-11-30T07:41:02.593Z,1.7
2017-11-30T07:41:43.115Z,1.83
2017-11-30T07:42:23.579Z,1.83
2017-11-30T07:43:04.105Z,1.79
2017-11-30T07:43:44.639Z,1.81
2017-11-30T07:44:25.133Z,1.83
2017-11-30T07:45:05.647Z,1.86
2017-11-30T07:45:46.150Z,1.87
2017-11-30T07:46:26.663Z,1.84
2017-11-30T07:47:07.191Z,1.84
2017-11-30T07:47:47.700Z,1.83
2017-11-30T07:48:28.203Z,1.79
2017-11-30T07:49:08.678Z,1.79
2017-11-30T07:49:49.159Z,1.81
2017-11-30T07:50:29.655Z,1.81
2017-11-30T07:51:10.238Z,1.81
2017-11-30T07:51:50.703Z,1.83
2017-11-30T07:52:31.193Z,1.86
2017-11-30T07:53:11.779Z,1.84
2017-11-30T07:53:52.235Z,1.83
2017-11-30T07:54:32.723Z,1.81
2017-11-30T07:55:13.220Z,1.84
2017-11-30T07:55:53.708Z,1.73
2017-11-30T07:56:34.208Z,1.77
2017-11-30T07:57:14.699Z,1.8
2017-11-30T07:57:55.176Z,1.84
2017-11-30T07:58:35.679Z,1.84
2017-11-30T07:59:16.145Z,1.81
2017-11-30T07:59:56.661Z,1.83
2017-11-30T08:00:37.110Z,1.9
2017-11-30T08:01:17.616Z,1.84
2017-11-30T08:01:58.104Z,1.9
2017-11-30T08:02:38.588Z,1.98
2017-11-30T08:03:19.131Z,1.9
2017-11-30T08:03:59.568Z,1.91
2017-11-30T08:04:40.076Z,1.93
2017-11-30T08:05:20.588Z,1.88
2017-11-30T08:06:01.086Z,1.95
2017-11-30T08:06:41.569Z,1.93
2017-11-30T08:07:22.074Z,1.98
2017-11-30T08:08:02.573Z,1.98
2017-11-30T08:08:43.264Z,1.95
2017-11-30T08:09:23.746Z,1.98
2017-11-30T08:10:04.241Z,2.05
2017-11-30T08:10:44.745Z,2.09
2017-11-30T08:11:25.244Z,2.07
2017-11-30T08:12:05.736Z,1.99
2017-11-30T08:12:46.214Z,2
2017-11-30T08:13:26.707Z,2.05
2017-11-30T08:14:07.186Z,1.98
2017-11-30T08:14:47.693Z,2.05
2017-11-30T08:15:28.224Z,1.93
2017-11-30T08:16:08.779Z,1.93
2017-11-30T08:16:49.215Z,2.02
2017-11-30T08:17:29.720Z,2.03
2017-11-30T08:18:10.235Z,2.02
2017-11-30T08:18:50.734Z,2.05
2017-11-30T08:19:31.237Z,2
2017-11-30T08:20:11.741Z,2.07
2017-11-30T08:20:52.251Z,2.1
2017-11-30T08:21:32.745Z,2.14
2017-11-30T08:22:13.239Z,2.06
2017-11-30T08:22:55.400Z,2.03
2017-11-30T08:23:35.888Z,2.06
2017-11-30T08:24:16.459Z,2.02
2017-11-30T08:24:56.954Z,2.12
2017-11-30T08:25:37.467Z,2.03
2017-11-30T08:26:19.587Z,2.07
2017-11-30T08:27:00.108Z,2.07
2017-11-30T08:27:40.584Z,2.05
2017-11-30T08:28:21.069Z,2.07
2017-11-30T08:29:01.601Z,2.1
2017-11-30T08:29:42.128Z,2.09
2017-11-30T08:30:22.603Z,2.06
2017-11-30T08:31:03.088Z,2.05
2017-11-30T08:31:43.565Z,2.05
2017-11-30T08:32:24.068Z,2.16
2017-11-30T08:33:04.718Z,2.09
2017-11-30T08:33:45.237Z,2.14
2017-11-30T08:34:25.744Z,2.07
2017-11-30T08:35:06.251Z,2.16
2017-11-30T08:35:46.759Z,2.14
2017-11-30T08:36:27.251Z,2.17
2017-11-30T08:37:07.733Z,2.18
2017-11-30T08:37:48.230Z,2.2
2017-11-30T08:38:28.717Z,2.23
2017-11-30T08:39:09.212Z,2.2
2017-11-30T08:39:49.729Z,2.28
2017-11-30T08:40:30.273Z,2.25
2017-11-30T08:41:10.805Z,2.28
2017-11-30T08:41:51.349Z,2.28
2017-11-30T08:42:31.811Z,2.31
2017-11-30T08:43:12.302Z,2.28
2017-11-30T08:43:52.817Z,2.25
2017-11-30T08:44:33.290Z,2.23
2017-11-30T08:45:13.786Z,2.3
2017-11-30T08:45:54.319Z,2.31
2017-11-30T08:46:34.763Z,2.31
2017-11-30T08:47:15.251Z,2.34
2017-11-30T08:47:55.737Z,2.3
2017-11-30T08:48:36.261Z,2.31
2017-11-30T08:49:16.764Z,2.3
2017-11-30T08:49:57.226Z,2.25
2017-11-30T08:50:37.721Z,2.27
2017-11-30T08:51:18.228Z,2.34
2017-11-30T08:51:58.714Z,2.28
2017-11-30T08:52:39.213Z,2.41
2017-11-30T08:53:19.681Z,2.38
2017-11-30T08:54:00.153Z,2.34
2017-11-30T08:54:40.783Z,2.34
2017-11-30T08:55:21.210Z,2.34
2017-11-30T08:56:01.679Z,2.36
2017-11-30T08:56:42.212Z,2.42
2017-11-30T08:57:22.652Z,2.36
2017-11-30T08:58:03.164Z,2.34
2017-11-30T08:58:43.657Z,2.31
2017-11-30T08:59:24.108Z,2.3
2017-11-30T09:00:04.605Z,2.34
2017-11-30T09:00:45.100Z,2.39
2017-11-30T09:01:25.628Z,2.36
2017-11-30T09:02:06.111Z,2.36
2017-11-30T09:02:46.576Z,2.28
2017-11-30T09:03:27.093Z,2.34
2017-11-30T09:04:07.586Z,2.48
2017-11-30T09:04:48.016Z,2.48
2017-11-30T09:05:28.568Z,2.39
2017-11-30T09:06:09.019Z,2.41
2017-11-30T09:06:49.553Z,2.43
2017-11-30T09:07:30.001Z,2.42
2017-11-30T09:08:10.517Z,2.45
2017-11-30T09:08:51.004Z,2.46
2017-11-30T09:09:31.461Z,2.46
2017-11-30T09:10:11.957Z,2.52
2017-11-30T09:10:54.219Z,2.49
2017-11-30T09:11:34.689Z,2.53
2017-11-30T09:12:15.171Z,2.48
2017-11-30T09:12:55.691Z,2.56
2017-11-30T09:13:36.172Z,2.54
2017-11-30T09:14:16.679Z,2.57
2017-11-30T09:14:57.193Z,2.57
2017-11-30T09:15:37.716Z,2.59
2017-11-30T09:16:18.290Z,2.56
2017-11-30T09:16:58.752Z,2.53
2017-11-30T09:17:39.206Z,2.56
2017-11-30T09:18:19.688Z,2.53
2017-11-30T09:19:00.178Z,2.57
2017-11-30T09:19:40.649Z,2.61
2017-11-30T09:20:21.180Z,2.66
2017-11-30T09:21:01.649Z,2.59
2017-11-30T09:21:42.186Z,2.61
2017-11-30T09:22:22.635Z,2.6
2017-11-30T09:23:03.164Z,2.59
2017-11-30T09:23:43.647Z,2.61
2017-11-30T09:24:24.172Z,2.64
2017-11-30T09:25:04.640Z,2.64
2017-11-30T09:25:45.134Z,2.6
2017-11-30T09:26:25.614Z,2.64
2017-11-30T09:27:06.152Z,2.63
2017-11-30T09:27:46.599Z,2.59
2017-11-30T09:28:27.120Z,2.59
2017-11-30T09:29:07.639Z,2.63